Time;durP1;ratioP1;P1;durP2;ratioP2;P2;SDS_P1;SDS_P2;PMS_P1;PMS_P2;Temp;Humidity;BMP_temperature;BMP_pressure;BME280_temperature;BME280_humidity;BME280_pressure;Samples;Min_cycle;Max_cycle;Signal;HPM_P1;HPM_P2
2022/03/09 00:02:21;;;;;;;3.28;2.97;;;;;;;;;;4975836;28;20239;-49
2022/03/09 00:04:50;;;;;;;2.78;2.58;;;;;;;;;;4974989;28;20235;-48
2022/03/09 00:07:17;;;;;;;3.40;3.10;;;;;;;;;;4975389;28;20290;-48
2022/03/09 00:09:44;;;;;;;2.88;2.67;;;;;;;;;;4976238;28;20224;-48
2022/03/09 00:12:12;;;;;;;2.90;2.67;;;;;;;;;;4975316;28;20235;-49
2022/03/09 00:14:39;;;;;;;2.75;2.55;;;;;;;;;;4976196;28;20239;-48
2022/03/09 00:17:06;;;;;;;3.17;2.90;;;;;;;;;;4975916;28;20298;-49
2022/03/09 00:19:33;;;;;;;2.80;2.60;;;;;;;;;;4975167;28;20608;-48
2022/03/09 00:22:02;;;;;;;2.63;2.42;;;;;;;;;;4975522;28;20634;-48
2022/03/09 00:24:29;;;;;;;2.90;2.65;;;;;;;;;;4975088;28;20243;-48
2022/03/09 00:26:57;;;;;;;3.10;2.80;;;;;;;;;;4975789;28;20235;-48
2022/03/09 00:29:24;;;;;;;2.83;2.63;;;;;;;;;;4975041;28;20513;-48
2022/03/09 00:31:51;;;;;;;2.80;2.60;;;;;;;;;;4975406;28;20367;-48
2022/03/09 00:34:18;;;;;;;2.80;2.50;;;;;;;;;;4974898;28;20294;-49
2022/03/09 00:36:46;;;;;;;3.08;2.88;;;;;;;;;;4975289;28;20298;-48
2022/03/09 00:39:14;;;;;;;3.00;2.80;;;;;;;;;;4975145;28;20247;-48
2022/03/09 00:41:41;;;;;;;2.78;2.58;;;;;;;;;;4975281;28;20231;-49
2022/03/09 00:44:09;;;;;;;2.60;2.40;;;;;;;;;;4975344;28;20239;-48
2022/03/09 00:46:36;;;;;;;2.80;2.60;;;;;;;;;;4975058;28;20244;-48
2022/03/09 00:49:03;;;;;;;3.05;2.75;;;;;;;;;;4973941;28;20294;-48
2022/03/09 00:51:31;;;;;;;2.95;2.75;;;;;;;;;;4974479;28;20306;-49
2022/03/09 00:53:58;;;;;;;2.42;2.22;;;;;;;;;;4975560;28;20239;-49
2022/03/09 00:56:26;;;;;;;2.50;2.30;;;;;;;;;;4975284;28;20268;-48
2022/03/09 00:58:54;;;;;;;2.88;2.58;;;;;;;;;;4974305;28;20235;-48
2022/03/09 01:01:21;;;;;;;3.03;2.72;;;;;;;;;;4974925;28;20232;-49
2022/03/09 01:03:48;;;;;;;2.92;2.65;;;;;;;;;;4975040;28;20287;-48
2022/03/09 01:06:16;;;;;;;3.03;2.72;;;;;;;;;;4974846;28;20243;-48
2022/03/09 01:08:44;;;;;;;2.70;2.50;;;;;;;;;;4974603;28;20227;-48
2022/03/09 01:11:11;;;;;;;2.78;2.58;;;;;;;;;;4976380;28;20493;-48
2022/03/09 01:13:40;;;;;;;2.47;2.28;;;;;;;;;;4978575;28;20706;-48
2022/03/09 01:16:07;;;;;;;2.97;2.78;;;;;;;;;;4979159;28;20286;-48
2022/03/09 01:18:34;;;;;;;3.00;2.70;;;;;;;;;;4978830;28;20271;-48
2022/03/09 01:21:01;;;;;;;3.25;2.95;;;;;;;;;;4978414;28;20239;-48
2022/03/09 01:23:29;;;;;;;3.22;2.75;;;;;;;;;;4978552;28;20240;-48
2022/03/09 01:25:56;;;;;;;2.80;2.60;;;;;;;;;;4978109;28;20666;-48
2022/03/09 01:28:23;;;;;;;2.80;2.60;;;;;;;;;;4978340;28;20235;-48
2022/03/09 01:30:52;;;;;;;2.80;2.60;;;;;;;;;;4978375;28;20227;-48
2022/03/09 01:33:19;;;;;;;2.80;2.50;;;;;;;;;;4977820;28;20295;-48
2022/03/09 01:35:46;;;;;;;3.10;2.80;;;;;;;;;;4977742;28;20293;-48
2022/03/09 01:38:14;;;;;;;2.72;2.53;;;;;;;;;;4978842;28;20614;-48
2022/03/09 01:40:41;;;;;;;2.85;2.65;;;;;;;;;;4977807;28;20554;-48
2022/03/09 01:43:08;;;;;;;2.90;2.67;;;;;;;;;;4978226;28;20231;-48
2022/03/09 01:45:36;;;;;;;2.70;2.50;;;;;;;;;;4978083;28;20309;-48
2022/03/09 01:48:05;;;;;;;2.85;2.65;;;;;;;;;;4978133;28;20566;-48
2022/03/09 01:50:32;;;;;;;2.65;2.45;;;;;;;;;;4978300;28;20231;-48
2022/03/09 01:52:59;;;;;;;2.85;2.65;;;;;;;;;;4977750;28;20232;-48
2022/03/09 01:55:27;;;;;;;2.95;2.75;;;;;;;;;;4976634;28;20231;-48
2022/03/09 01:57:54;;;;;;;3.00;2.70;;;;;;;;;;4977227;28;20231;-48
2022/03/09 02:00:22;;;;;;;2.83;2.63;;;;;;;;;;4977818;28;20297;-48
2022/03/09 02:02:49;;;;;;;2.80;2.60;;;;;;;;;;4977790;28;20231;-48
2022/03/09 02:05:18;;;;;;;2.42;2.22;;;;;;;;;;4977967;28;20231;-48
2022/03/09 02:10:30;;;;;;;2.80;2.60;;;;;;;;;;4977245;28;20476;-49
2022/03/09 02:12:57;;;;;;;2.90;2.70;;;;;;;;;;4976932;28;20236;-48
2022/03/09 02:15:25;;;;;;;3.00;2.72;;;;;;;;;;4977837;28;20330;-48
2022/03/09 02:17:52;;;;;;;2.70;2.50;;;;;;;;;;4977066;28;20239;-48
2022/03/09 02:20:21;;;;;;;2.58;2.38;;;;;;;;;;4977695;28;20522;-48
2022/03/09 02:22:49;;;;;;;2.90;2.60;;;;;;;;;;4975605;28;20239;-48
2022/03/09 02:25:17;;;;;;;2.83;2.63;;;;;;;;;;4977022;28;20571;-48
2022/03/09 02:27:45;;;;;;;3.03;2.72;;;;;;;;;;4977838;28;20239;-48
2022/03/09 02:30:13;;;;;;;2.95;2.75;;;;;;;;;;4978499;28;20228;-48
2022/03/09 02:32:43;;;;;;;2.60;2.40;;;;;;;;;;4978363;28;20294;-48
2022/03/09 02:35:11;;;;;;;2.85;2.65;;;;;;;;;;4977963;28;20239;-48
2022/03/09 02:37:38;;;;;;;2.80;2.60;;;;;;;;;;4978271;28;20547;-50
2022/03/09 02:40:08;;;;;;;2.97;2.78;;;;;;;;;;4977894;28;20646;-50
2022/03/09 02:42:36;;;;;;;2.72;2.53;;;;;;;;;;4977256;28;20232;-49
2022/03/09 02:45:04;;;;;;;2.50;2.30;;;;;;;;;;4978234;28;20247;-48
2022/03/09 02:47:32;;;;;;;3.00;2.53;;;;;;;;;;4977630;28;20228;-49
2022/03/09 02:49:59;;;;;;;2.83;2.63;;;;;;;;;;4977867;28;20290;-48
2022/03/09 02:52:26;;;;;;;2.72;2.53;;;;;;;;;;4977141;28;20231;-48
2022/03/09 02:54:53;;;;;;;2.70;2.50;;;;;;;;;;4978193;28;20318;-48
2022/03/09 02:57:22;;;;;;;3.00;2.70;;;;;;;;;;4977436;28;20239;-48
2022/03/09 02:59:50;;;;;;;2.33;2.10;;;;;;;;;;4977288;28;20306;-48
2022/03/09 03:02:18;;;;;;;2.55;2.35;;;;;;;;;;4976778;28;20235;-48
2022/03/09 03:04:45;;;;;;;2.60;2.40;;;;;;;;;;4977231;28;20242;-48
2022/03/09 03:07:12;;;;;;;3.30;2.30;;;;;;;;;;4977602;28;20227;-48
2022/03/09 03:09:40;;;;;;;2.70;2.50;;;;;;;;;;4977591;28;20299;-48
2022/03/09 03:12:07;;;;;;;2.85;2.55;;;;;;;;;;4977135;28;20239;-48
2022/03/09 03:14:36;;;;;;;2.60;2.40;;;;;;;;;;4977043;28;20232;-48
2022/03/09 03:17:03;;;;;;;2.63;2.42;;;;;;;;;;4976950;28;20215;-48
2022/03/09 03:19:30;;;;;;;2.83;2.63;;;;;;;;;;4976315;28;20243;-49
2022/03/09 03:21:58;;;;;;;2.80;2.60;;;;;;;;;;4977006;28;20239;-48
2022/03/09 03:24:27;;;;;;;2.75;2.45;;;;;;;;;;4976775;28;20239;-48
2022/03/09 03:26:54;;;;;;;3.00;2.67;;;;;;;;;;4976242;28;20305;-48
2022/03/09 03:29:21;;;;;;;3.25;2.95;;;;;;;;;;4977460;28;20235;-48
2022/03/09 03:31:50;;;;;;;2.60;2.40;;;;;;;;;;4976643;28;20239;-48
2022/03/09 03:34:17;;;;;;;2.83;2.63;;;;;;;;;;4976921;28;20239;-48
2022/03/09 03:36:45;;;;;;;2.90;2.70;;;;;;;;;;4976190;28;20574;-48
2022/03/09 03:39:13;;;;;;;2.88;2.67;;;;;;;;;;4977242;28;20243;-48
2022/03/09 03:41:40;;;;;;;4.80;2.88;;;;;;;;;;4976003;28;20231;-48
2022/03/09 03:44:08;;;;;;;3.60;2.78;;;;;;;;;;4976328;28;20239;-48
2022/03/09 03:46:35;;;;;;;2.60;2.40;;;;;;;;;;4976858;28;20318;-48
2022/03/09 03:49:05;;;;;;;2.70;2.50;;;;;;;;;;4976445;28;20239;-48
2022/03/09 03:51:32;;;;;;;3.05;2.80;;;;;;;;;;4976676;28;20302;-48
2022/03/09 03:53:59;;;;;;;3.00;2.80;;;;;;;;;;4975887;28;20271;-48
2022/03/09 03:56:26;;;;;;;2.53;2.33;;;;;;;;;;4976767;28;20286;-48
2022/03/09 03:58:54;;;;;;;2.92;2.70;;;;;;;;;;4976188;28;20231;-48
2022/03/09 04:01:21;;;;;;;3.20;2.90;;;;;;;;;;4976395;28;20622;-48
2022/03/09 04:03:48;;;;;;;2.90;2.70;;;;;;;;;;4977511;28;20207;-48
2022/03/09 04:06:18;;;;;;;2.85;2.65;;;;;;;;;;4977584;28;20266;-48
2022/03/09 04:08:45;;;;;;;3.10;2.80;;;;;;;;;;4977259;28;20208;-48
2022/03/09 04:11:12;;;;;;;2.60;2.40;;;;;;;;;;4977345;28;20203;-49
2022/03/09 04:13:42;;;;;;;2.60;2.40;;;;;;;;;;4976626;28;20227;-49
2022/03/09 04:16:09;;;;;;;2.50;2.30;;;;;;;;;;4976122;28;20322;-49
2022/03/09 04:18:37;;;;;;;2.58;2.38;;;;;;;;;;4976194;28;20294;-49
2022/03/09 04:21:04;;;;;;;2.50;2.30;;;;;;;;;;4975848;28;20243;-49
2022/03/09 04:23:33;;;;;;;2.58;2.38;;;;;;;;;;4975942;28;20510;-49
2022/03/09 04:26:00;;;;;;;2.78;2.58;;;;;;;;;;4975771;28;20239;-49
2022/03/09 04:28:28;;;;;;;3.00;2.70;;;;;;;;;;4975649;28;20254;-49
2022/03/09 04:30:55;;;;;;;2.70;2.50;;;;;;;;;;4975579;28;20224;-49
2022/03/09 04:33:22;;;;;;;2.78;2.58;;;;;;;;;;4977038;28;20514;-48
2022/03/09 04:35:49;;;;;;;2.42;2.22;;;;;;;;;;4975410;28;20235;-50
2022/03/09 04:38:17;;;;;;;2.72;2.53;;;;;;;;;;4976284;28;20705;-48
2022/03/09 04:40:45;;;;;;;2.83;2.63;;;;;;;;;;4975386;28;20228;-48
2022/03/09 04:43:13;;;;;;;2.85;2.65;;;;;;;;;;4975210;28;20597;-49
2022/03/09 04:45:40;;;;;;;2.63;2.42;;;;;;;;;;4976192;28;20235;-48
2022/03/09 04:48:07;;;;;;;3.08;2.70;;;;;;;;;;4979495;28;20290;-48
2022/03/09 04:50:35;;;;;;;2.60;2.40;;;;;;;;;;4979407;28;20231;-48
2022/03/09 04:53:02;;;;;;;2.50;2.30;;;;;;;;;;4979979;28;20236;-48
2022/03/09 04:55:29;;;;;;;2.85;2.65;;;;;;;;;;4979002;28;20293;-48
2022/03/09 04:57:58;;;;;;;2.80;2.60;;;;;;;;;;4979718;28;20239;-49
2022/03/09 05:00:25;;;;;;;2.60;2.40;;;;;;;;;;4979278;28;20244;-49
2022/03/09 05:02:52;;;;;;;2.60;2.40;;;;;;;;;;4978569;28;20235;-48
2022/03/09 05:05:20;;;;;;;2.88;2.67;;;;;;;;;;4979759;28;20212;-48
2022/03/09 05:07:47;;;;;;;2.90;2.70;;;;;;;;;;4978990;28;20278;-49
2022/03/09 05:10:15;;;;;;;2.70;2.50;;;;;;;;;;4977869;28;20286;-48
2022/03/09 05:12:42;;;;;;;2.65;2.45;;;;;;;;;;4979142;28;20266;-48
2022/03/09 05:15:11;;;;;;;3.03;2.72;;;;;;;;;;4979561;28;20208;-48
2022/03/09 05:17:42;;;;;;;2.95;2.67;;;;;;;;;;4978827;28;20274;-48
2022/03/09 05:20:10;;;;;;;2.60;2.40;;;;;;;;;;4979627;28;20263;-48
2022/03/09 05:22:37;;;;;;;3.03;2.80;;;;;;;;;;4979560;28;20208;-48
2022/03/09 05:25:06;;;;;;;2.97;2.78;;;;;;;;;;4978870;28;20274;-49
2022/03/09 05:27:34;;;;;;;2.70;2.50;;;;;;;;;;4980029;28;20251;-49
2022/03/09 05:30:01;;;;;;;2.72;2.53;;;;;;;;;;4978867;28;20203;-49
2022/03/09 05:32:31;;;;;;;2.80;2.60;;;;;;;;;;4978410;28;20290;-48
2022/03/09 05:34:59;;;;;;;2.88;2.42;;;;;;;;;;4979492;28;20214;-48
2022/03/09 05:37:28;;;;;;;3.00;2.70;;;;;;;;;;4979248;28;20529;-48
2022/03/09 05:39:55;;;;;;;3.03;2.47;;;;;;;;;;4978688;28;20218;-48
2022/03/09 05:42:23;;;;;;;2.80;2.53;;;;;;;;;;4978149;28;20712;-48
2022/03/09 05:44:50;;;;;;;2.88;2.67;;;;;;;;;;4977996;28;20310;-49
2022/03/09 05:47:17;;;;;;;3.15;2.95;;;;;;;;;;4977529;28;20207;-48
2022/03/09 05:49:46;;;;;;;3.03;2.70;;;;;;;;;;4976933;28;20290;-49
2022/03/09 05:52:13;;;;;;;2.38;2.17;;;;;;;;;;4976769;28;20260;-49
2022/03/09 05:54:41;;;;;;;3.03;2.83;;;;;;;;;;4976384;28;20223;-48
2022/03/09 05:57:08;;;;;;;2.80;2.60;;;;;;;;;;4976035;28;20270;-48
2022/03/09 05:59:35;;;;;;;2.80;2.60;;;;;;;;;;4975890;28;20215;-49
2022/03/09 06:02:02;;;;;;;2.72;2.53;;;;;;;;;;4976265;28;20697;-48
2022/03/09 06:04:30;;;;;;;3.25;2.70;;;;;;;;;;4975452;28;20200;-49
2022/03/09 06:06:59;;;;;;;2.55;2.35;;;;;;;;;;4973760;28;20306;-49
2022/03/09 06:09:26;;;;;;;2.40;2.20;;;;;;;;;;4975802;28;20290;-48
2022/03/09 06:11:53;;;;;;;2.83;2.63;;;;;;;;;;4975225;28;20402;-48
2022/03/09 06:14:20;;;;;;;3.03;2.72;;;;;;;;;;4976459;28;20283;-48
2022/03/09 06:16:48;;;;;;;2.70;2.50;;;;;;;;;;4974292;28;20320;-48
2022/03/09 06:19:16;;;;;;;3.10;2.90;;;;;;;;;;4974689;28;20203;-48
2022/03/09 06:21:43;;;;;;;2.83;2.63;;;;;;;;;;4975579;28;20294;-48
2022/03/09 06:24:12;;;;;;;2.45;2.25;;;;;;;;;;4973655;28;20270;-48
2022/03/09 06:26:39;;;;;;;2.88;2.67;;;;;;;;;;4974324;28;20291;-49
2022/03/09 06:29:08;;;;;;;3.08;2.78;;;;;;;;;;4975279;28;20262;-48
2022/03/09 06:31:36;;;;;;;2.65;2.40;;;;;;;;;;4975353;28;20211;-48
2022/03/09 06:34:03;;;;;;;2.78;2.58;;;;;;;;;;4975242;28;20578;-49
2022/03/09 06:36:30;;;;;;;2.53;2.33;;;;;;;;;;4973920;28;20305;-48
2022/03/09 06:38:58;;;;;;;2.70;2.50;;;;;;;;;;4974548;28;20576;-48
2022/03/09 06:41:26;;;;;;;3.05;2.75;;;;;;;;;;4973096;28;20575;-49
2022/03/09 06:43:55;;;;;;;2.80;2.60;;;;;;;;;;4982420;28;20289;-48
2022/03/09 06:46:23;;;;;;;2.92;2.72;;;;;;;;;;4994489;28;20254;-48
2022/03/09 06:48:51;;;;;;;2.65;2.45;;;;;;;;;;4994662;28;20234;-48
2022/03/09 06:51:18;;;;;;;2.88;2.67;;;;;;;;;;4992239;28;20223;-48
2022/03/09 06:53:46;;;;;;;3.15;2.30;;;;;;;;;;4994563;28;20230;-48
2022/03/09 06:56:13;;;;;;;2.92;2.70;;;;;;;;;;4993108;28;20221;-48
2022/03/09 06:58:42;;;;;;;4.40;3.00;;;;;;;;;;4993519;28;20226;-48
2022/03/09 07:01:10;;;;;;;3.58;2.58;;;;;;;;;;4993220;28;20230;-48
2022/03/09 07:03:37;;;;;;;3.45;2.83;;;;;;;;;;4993836;28;20218;-48
2022/03/09 07:06:04;;;;;;;2.95;2.60;;;;;;;;;;4993700;28;20236;-48
2022/03/09 07:08:32;;;;;;;3.47;2.60;;;;;;;;;;4992829;28;20273;-48
2022/03/09 07:10:59;;;;;;;4.82;2.72;;;;;;;;;;4994082;28;20203;-48
2022/03/09 07:13:27;;;;;;;2.78;2.58;;;;;;;;;;4993460;28;20221;-48
2022/03/09 07:15:55;;;;;;;2.78;2.40;;;;;;;;;;4993622;28;20269;-48
2022/03/09 07:18:23;;;;;;;3.42;2.70;;;;;;;;;;4993730;28;20281;-49
2022/03/09 07:20:51;;;;;;;3.00;2.33;;;;;;;;;;4994470;28;20237;-50
2022/03/09 07:23:18;;;;;;;3.20;2.60;;;;;;;;;;4993046;28;20203;-50
2022/03/09 07:25:45;;;;;;;2.60;2.38;;;;;;;;;;4994381;28;20284;-50
2022/03/09 07:28:15;;;;;;;3.08;2.67;;;;;;;;;;4994975;28;20502;-50
2022/03/09 07:30:42;;;;;;;3.05;2.75;;;;;;;;;;4995208;28;20206;-50
2022/03/09 07:33:10;;;;;;;2.90;2.70;;;;;;;;;;4995145;28;20459;-48
2022/03/09 07:35:38;;;;;;;3.30;2.60;;;;;;;;;;4993600;28;20207;-48
2022/03/09 07:38:07;;;;;;;3.63;2.40;;;;;;;;;;4992612;28;20207;-48
2022/03/09 07:40:34;;;;;;;3.00;2.70;;;;;;;;;;4993238;28;20203;-49
2022/03/09 07:43:01;;;;;;;3.22;2.80;;;;;;;;;;4993005;28;20269;-50
2022/03/09 07:45:28;;;;;;;3.00;2.50;;;;;;;;;;4993025;28;20849;-50
2022/03/09 07:47:56;;;;;;;3.05;2.75;;;;;;;;;;4993938;28;20273;-50
2022/03/09 07:50:25;;;;;;;4.10;2.80;;;;;;;;;;4993782;28;20302;-50
2022/03/09 07:52:52;;;;;;;3.95;2.47;;;;;;;;;;4993659;28;20342;-50
2022/03/09 07:55:20;;;;;;;3.47;2.53;;;;;;;;;;4993292;28;20261;-51
2022/03/09 07:57:47;;;;;;;3.10;2.80;;;;;;;;;;4992666;28;20278;-50
2022/03/09 08:00:15;;;;;;;3.88;2.85;;;;;;;;;;4994068;28;20203;-48
2022/03/09 08:02:42;;;;;;;3.03;2.63;;;;;;;;;;4993091;28;20234;-48
2022/03/09 08:05:10;;;;;;;3.72;2.97;;;;;;;;;;4993900;28;20265;-48
2022/03/09 08:07:38;;;;;;;4.72;2.80;;;;;;;;;;4993510;28;20203;-48
2022/03/09 08:10:06;;;;;;;3.10;2.75;;;;;;;;;;4993994;28;20219;-49
2022/03/09 08:12:34;;;;;;;3.08;2.80;;;;;;;;;;4992896;28;20203;-49
2022/03/09 08:15:01;;;;;;;2.47;2.28;;;;;;;;;;4993646;28;20631;-48
2022/03/09 08:17:29;;;;;;;3.00;2.70;;;;;;;;;;4992518;28;20285;-48
2022/03/09 08:19:56;;;;;;;3.50;3.10;;;;;;;;;;4992842;28;20317;-49
2022/03/09 08:22:24;;;;;;;3.10;2.80;;;;;;;;;;4996420;28;20575;-49
2022/03/09 08:24:52;;;;;;;3.20;2.85;;;;;;;;;;4997454;28;20253;-48
2022/03/09 08:27:19;;;;;;;3.30;2.80;;;;;;;;;;4997701;28;20419;-49
2022/03/09 08:29:47;;;;;;;3.10;2.80;;;;;;;;;;4997309;28;20751;-49
2022/03/09 08:32:15;;;;;;;3.53;2.60;;;;;;;;;;4998590;28;20210;-49
2022/03/09 08:34:42;;;;;;;3.08;2.78;;;;;;;;;;4997293;28;20542;-48
2022/03/09 08:37:09;;;;;;;2.95;2.70;;;;;;;;;;4996733;28;20261;-49
2022/03/09 08:39:37;;;;;;;3.03;2.72;;;;;;;;;;4996738;28;20207;-48
2022/03/09 08:42:06;;;;;;;3.50;2.70;;;;;;;;;;4996951;28;20235;-49
2022/03/09 08:44:33;;;;;;;3.83;2.78;;;;;;;;;;4996443;28;20273;-49
2022/03/09 08:47:01;;;;;;;3.47;3.17;;;;;;;;;;4998000;28;20565;-48
2022/03/09 08:49:29;;;;;;;3.42;3.13;;;;;;;;;;4995884;28;20211;-49
2022/03/09 08:51:56;;;;;;;3.05;2.75;;;;;;;;;;4996474;28;20504;-49
2022/03/09 08:54:23;;;;;;;3.65;2.80;;;;;;;;;;4995975;28;20394;-49
2022/03/09 08:56:51;;;;;;;4.35;2.75;;;;;;;;;;4997270;28;20206;-49
2022/03/09 08:59:19;;;;;;;3.42;2.85;;;;;;;;;;4995641;28;20265;-48
2022/03/09 09:01:47;;;;;;;2.97;2.67;;;;;;;;;;4995608;28;20239;-49
2022/03/09 09:04:16;;;;;;;2.85;2.53;;;;;;;;;;4997030;28;20412;-48
2022/03/09 09:06:43;;;;;;;3.17;2.72;;;;;;;;;;4996751;28;20205;-48
2022/03/09 09:09:10;;;;;;;3.03;2.72;;;;;;;;;;4997338;28;20217;-49
2022/03/09 09:11:38;;;;;;;3.22;2.67;;;;;;;;;;4996960;28;20207;-48
2022/03/09 09:14:06;;;;;;;4.15;2.80;;;;;;;;;;4996970;28;20203;-49
2022/03/09 09:16:35;;;;;;;2.92;2.70;;;;;;;;;;4996639;28;20214;-48
2022/03/09 09:19:02;;;;;;;3.10;2.80;;;;;;;;;;4995330;28;20351;-48
2022/03/09 09:21:30;;;;;;;3.55;2.55;;;;;;;;;;4996083;28;20301;-49
2022/03/09 09:23:57;;;;;;;4.18;2.53;;;;;;;;;;4996142;28;20277;-48
2022/03/09 09:26:24;;;;;;;3.35;2.90;;;;;;;;;;4995098;28;20351;-48
2022/03/09 09:28:51;;;;;;;3.15;2.85;;;;;;;;;;4995226;28;20215;-49
2022/03/09 09:31:18;;;;;;;2.92;2.50;;;;;;;;;;4996142;28;20665;-49
2022/03/09 09:33:47;;;;;;;2.88;2.67;;;;;;;;;;4995479;28;20269;-49
2022/03/09 09:36:14;;;;;;;2.97;2.67;;;;;;;;;;4993917;28;20556;-48
2022/03/09 09:38:42;;;;;;;3.20;2.90;;;;;;;;;;4993806;28;20207;-49
2022/03/09 09:41:15;;;;;;;2.88;2.60;;;;;;;;;;4995022;28;20661;-48
2022/03/09 09:43:43;;;;;;;3.17;2.65;;;;;;;;;;4993904;28;20207;-48
2022/03/09 09:46:12;;;;;;;3.00;2.70;;;;;;;;;;4993818;28;20239;-49
2022/03/09 09:48:40;;;;;;;3.15;2.85;;;;;;;;;;4995011;28;20589;-48
2022/03/09 09:51:08;;;;;;;2.97;2.67;;;;;;;;;;4995152;28;20414;-48
2022/03/09 09:53:36;;;;;;;3.20;2.90;;;;;;;;;;4993967;28;20414;-49
2022/03/09 09:56:04;;;;;;;2.80;2.60;;;;;;;;;;4994585;28;20271;-48
2022/03/09 09:58:32;;;;;;;2.85;2.63;;;;;;;;;;4994808;28;20211;-48
2022/03/09 10:00:59;;;;;;;3.50;2.67;;;;;;;;;;4994110;28;20210;-49
2022/03/09 10:03:26;;;;;;;3.17;2.88;;;;;;;;;;4994597;28;20238;-49
2022/03/09 10:05:53;;;;;;;2.53;2.33;;;;;;;;;;4994105;28;20265;-48
2022/03/09 10:08:22;;;;;;;3.15;2.85;;;;;;;;;;4994842;28;20273;-49
2022/03/09 10:10:57;;;;;;;2.75;2.50;;;;;;;;;;4994464;28;20269;-49
2022/03/09 10:13:26;;;;;;;2.40;2.20;;;;;;;;;;4994641;28;20431;-48
2022/03/09 10:16:08;;;;;;;3.08;2.67;;;;;;;;;;4993924;28;20235;-49
2022/03/09 10:18:35;;;;;;;2.90;2.60;;;;;;;;;;4994041;28;20214;-49
2022/03/09 10:21:10;;;;;;;3.33;2.72;;;;;;;;;;4994955;28;20207;-49
2022/03/09 10:23:51;;;;;;;4.50;2.50;;;;;;;;;;4994246;28;20202;-49
2022/03/09 10:26:19;;;;;;;3.20;2.40;;;;;;;;;;4994439;28;20211;-48
2022/03/09 10:28:55;;;;;;;2.70;2.45;;;;;;;;;;4994549;28;20253;-48
2022/03/09 10:31:31;;;;;;;2.92;2.67;;;;;;;;;;4994106;28;20199;-48
2022/03/09 10:34:05;;;;;;;3.33;2.25;;;;;;;;;;4995072;28;20286;-49
2022/03/09 10:36:32;;;;;;;2.53;2.33;;;;;;;;;;4993242;28;20209;-49
2022/03/09 10:39:11;;;;;;;3.03;2.60;;;;;;;;;;4993577;28;20605;-48
2022/03/09 10:41:39;;;;;;;3.47;2.80;;;;;;;;;;4993151;28;20642;-49
2022/03/09 10:44:06;;;;;;;4.35;2.28;;;;;;;;;;4992355;28;20529;-49
2022/03/09 10:46:42;;;;;;;3.63;2.40;;;;;;;;;;4993556;28;20530;-49
2022/03/09 10:49:11;;;;;;;2.67;2.47;;;;;;;;;;4993834;28;20203;-49
2022/03/09 10:51:39;;;;;;;2.67;2.47;;;;;;;;;;4993427;28;20207;-49
2022/03/09 10:54:08;;;;;;;2.55;2.20;;;;;;;;;;4992139;28;20285;-49
2022/03/09 10:56:37;;;;;;;2.65;2.45;;;;;;;;;;4992554;28;20543;-49
2022/03/09 10:59:11;;;;;;;2.97;2.60;;;;;;;;;;4993571;28;20214;-48
2022/03/09 11:01:39;;;;;;;3.30;2.40;;;;;;;;;;4993885;28;20399;-49
2022/03/09 11:04:13;;;;;;;2.85;2.50;;;;;;;;;;4992203;28;20282;-49
2022/03/09 11:06:46;;;;;;;2.53;2.00;;;;;;;;;;4992159;28;20212;-49
2022/03/09 11:09:14;;;;;;;2.38;2.08;;;;;;;;;;4992870;28;20305;-49
2022/03/09 11:11:43;;;;;;;2.60;2.40;;;;;;;;;;4993801;28;20383;-49
2022/03/09 11:14:11;;;;;;;2.97;2.38;;;;;;;;;;4991966;28;20557;-48
2022/03/09 11:16:39;;;;;;;2.42;2.15;;;;;;;;;;4992566;28;20207;-49
2022/03/09 11:19:06;;;;;;;2.75;2.28;;;;;;;;;;4992287;28;20269;-49
2022/03/09 11:21:34;;;;;;;2.88;2.38;;;;;;;;;;4992259;28;20207;-49
2022/03/09 11:24:01;;;;;;;2.75;2.55;;;;;;;;;;4992702;28;20203;-49
2022/03/09 11:26:30;;;;;;;2.60;2.40;;;;;;;;;;4992126;28;20602;-49
2022/03/09 11:29:02;;;;;;;2.72;2.10;;;;;;;;;;4993076;28;20361;-49
2022/03/09 11:31:45;;;;;;;2.38;2.17;;;;;;;;;;4991807;28;20578;-49
2022/03/09 11:34:31;;;;;;;1.92;1.80;;;;;;;;;;4988892;28;20261;-49
2022/03/09 11:36:59;;;;;;;2.50;2.30;;;;;;;;;;4992205;28;20213;-49
2022/03/09 11:39:26;;;;;;;2.20;1.88;;;;;;;;;;4991127;28;20222;-49
2022/03/09 11:42:12;;;;;;;2.28;2.08;;;;;;;;;;4992014;28;20215;-49
2022/03/09 11:44:40;;;;;;;2.63;2.10;;;;;;;;;;4991988;28;20641;-49
2022/03/09 11:47:08;;;;;;;2.53;2.22;;;;;;;;;;4993349;28;20278;-49
2022/03/09 11:49:55;;;;;;;2.00;1.90;;;;;;;;;;4992482;28;20562;-49
2022/03/09 11:52:23;;;;;;;2.25;2.03;;;;;;;;;;4992219;28;20262;-49
2022/03/09 11:54:53;;;;;;;2.10;1.90;;;;;;;;;;4990722;28;20273;-49
2022/03/09 11:57:22;;;;;;;2.45;2.15;;;;;;;;;;4993200;28;20214;-49
2022/03/09 12:00:04;;;;;;;3.55;2.30;;;;;;;;;;4992132;28;20510;-49
2022/03/09 12:02:42;;;;;;;5.65;2.33;;;;;;;;;;4991797;28;20293;-49
2022/03/09 12:05:10;;;;;;;2.90;2.08;;;;;;;;;;4991975;28;20218;-48
2022/03/09 12:07:47;;;;;;;3.30;2.10;;;;;;;;;;4992575;28;20217;-49
2022/03/09 12:10:16;;;;;;;2.38;2.17;;;;;;;;;;4992197;28;20205;-49
2022/03/09 12:13:02;;;;;;;2.28;2.08;;;;;;;;;;4992639;28;20231;-49
2022/03/09 12:15:31;;;;;;;2.17;1.70;;;;;;;;;;4991758;28;20207;-49
2022/03/09 12:18:00;;;;;;;2.67;2.00;;;;;;;;;;4992818;28;20302;-49
2022/03/09 12:20:28;;;;;;;2.30;1.88;;;;;;;;;;4992309;28;20214;-49
2022/03/09 12:23:05;;;;;;;2.20;2.00;;;;;;;;;;4991823;28;20325;-49
2022/03/09 12:25:39;;;;;;;2.25;1.63;;;;;;;;;;4991458;28;20295;-49
2022/03/09 12:28:36;;;;;;;3.25;2.08;;;;;;;;;;4991559;28;20273;-49
2022/03/09 12:31:17;;;;;;;2.20;1.92;;;;;;;;;;4990733;28;20250;-49
2022/03/09 12:33:49;;;;;;;3.45;1.70;;;;;;;;;;4990924;28;20202;-49
2022/03/09 12:36:17;;;;;;;2.15;1.95;;;;;;;;;;4991566;28;20199;-49
2022/03/09 12:38:45;;;;;;;1.88;1.70;;;;;;;;;;4990048;28;20215;-49
2022/03/09 12:41:24;;;;;;;3.60;1.95;;;;;;;;;;4989651;28;20468;-48
2022/03/09 12:43:53;;;;;;;2.10;1.70;;;;;;;;;;4990985;28;20569;-49
2022/03/09 12:46:20;;;;;;;2.55;2.00;;;;;;;;;;4990344;28;20344;-49
2022/03/09 12:48:49;;;;;;;2.03;1.83;;;;;;;;;;4991229;28;20222;-49
2022/03/09 12:51:17;;;;;;;4.05;2.10;;;;;;;;;;4990598;28;20215;-49
2022/03/09 12:53:44;;;;;;;2.80;1.70;;;;;;;;;;4992039;28;20266;-49
2022/03/09 12:56:15;;;;;;;2.28;1.75;;;;;;;;;;4991086;28;20273;-49
2022/03/09 12:58:42;;;;;;;2.53;1.70;;;;;;;;;;4992197;28;20280;-49
2022/03/09 13:01:09;;;;;;;2.80;2.00;;;;;;;;;;4991845;28;20587;-49
2022/03/09 13:03:37;;;;;;;2.25;1.70;;;;;;;;;;4991569;28;20630;-49
2022/03/09 13:06:06;;;;;;;2.20;1.85;;;;;;;;;;4991029;28;20261;-48
2022/03/09 13:08:35;;;;;;;2.97;1.98;;;;;;;;;;4995561;28;20534;-49
2022/03/09 13:11:04;;;;;;;1.92;1.80;;;;;;;;;;4995980;28;20207;-48
2022/03/09 13:13:32;;;;;;;3.25;1.90;;;;;;;;;;4994717;28;20207;-48
2022/03/09 13:16:00;;;;;;;2.20;1.50;;;;;;;;;;4994366;28;20203;-48
2022/03/09 13:18:29;;;;;;;1.90;1.67;;;;;;;;;;4993800;28;20302;-48
2022/03/09 13:20:57;;;;;;;1.67;1.58;;;;;;;;;;4994547;28;20273;-49
2022/03/09 13:23:26;;;;;;;2.50;1.92;;;;;;;;;;4994027;28;20234;-48
2022/03/09 13:25:54;;;;;;;2.28;1.58;;;;;;;;;;4994686;28;20254;-49
2022/03/09 13:28:28;;;;;;;1.92;1.83;;;;;;;;;;4995586;28;20202;-48
2022/03/09 13:30:56;;;;;;;1.80;1.70;;;;;;;;;;4994474;28;20253;-49
2022/03/09 13:33:24;;;;;;;2.42;1.60;;;;;;;;;;4994003;28;20211;-49
2022/03/09 13:35:52;;;;;;;2.50;1.70;;;;;;;;;;4993745;28;20211;-49
2022/03/09 13:38:24;;;;;;;2.55;1.70;;;;;;;;;;4994362;28;20218;-48
2022/03/09 13:40:53;;;;;;;2.50;1.50;;;;;;;;;;4993261;28;20562;-48
2022/03/09 13:43:20;;;;;;;2.13;1.67;;;;;;;;;;4993164;28;20226;-48
2022/03/09 13:45:48;;;;;;;1.80;1.70;;;;;;;;;;4993905;28;20605;-49
2022/03/09 13:48:20;;;;;;;1.60;1.23;;;;;;;;;;4994848;28;20273;-49
2022/03/09 13:50:59;;;;;;;1.70;1.40;;;;;;;;;;4993241;28;20282;-49
2022/03/09 13:53:32;;;;;;;1.67;1.48;;;;;;;;;;4994701;28;20214;-48
2022/03/09 13:56:01;;;;;;;1.52;1.40;;;;;;;;;;4994612;28;20207;-48
2022/03/09 13:58:29;;;;;;;1.60;1.45;;;;;;;;;;4993517;28;20590;-49
2022/03/09 14:01:04;;;;;;;2.08;1.58;;;;;;;;;;4993834;28;20305;-48
2022/03/09 14:03:39;;;;;;;1.67;1.50;;;;;;;;;;4993414;28;20321;-48
2022/03/09 14:06:14;;;;;;;1.40;1.30;;;;;;;;;;4991257;28;20649;-48
2022/03/09 14:08:41;;;;;;;2.30;1.40;;;;;;;;;;4994000;28;20776;-48
2022/03/09 14:11:13;;;;;;;2.05;1.20;;;;;;;;;;4994753;28;20921;-48
2022/03/09 14:13:55;;;;;;;1.75;1.63;;;;;;;;;;4993957;28;20233;-48
2022/03/09 14:16:22;;;;;;;1.67;1.48;;;;;;;;;;4994031;28;20199;-48
2022/03/09 14:18:50;;;;;;;1.40;1.20;;;;;;;;;;4992471;28;20264;-48
2022/03/09 14:21:17;;;;;;;1.38;1.13;;;;;;;;;;4992557;28;20316;-49
2022/03/09 14:23:46;;;;;;;1.58;1.48;;;;;;;;;;4991711;28;20267;-49
2022/03/09 14:26:15;;;;;;;2.08;1.30;;;;;;;;;;4993636;28;20262;-48
2022/03/09 14:28:43;;;;;;;1.90;1.52;;;;;;;;;;4993693;28;20755;-49
2022/03/09 14:31:10;;;;;;;1.50;1.40;;;;;;;;;;4993470;28;20590;-48
2022/03/09 14:33:38;;;;;;;1.48;1.20;;;;;;;;;;4992248;28;20265;-48
2022/03/09 14:36:06;;;;;;;1.30;1.20;;;;;;;;;;4993873;28;20242;-48
2022/03/09 14:38:35;;;;;;;1.58;1.48;;;;;;;;;;4994140;28;20214;-49
2022/03/09 14:41:03;;;;;;;1.45;1.30;;;;;;;;;;4994008;28;20850;-49
2022/03/09 14:43:31;;;;;;;1.35;1.10;;;;;;;;;;4994156;28;20484;-49
2022/03/09 14:45:59;;;;;;;1.42;1.20;;;;;;;;;;4992232;28;20250;-49
2022/03/09 14:48:26;;;;;;;1.27;1.15;;;;;;;;;;4992603;28;20215;-49
2022/03/09 14:50:53;;;;;;;2.08;1.40;;;;;;;;;;4991495;28;20349;-49
2022/03/09 14:53:25;;;;;;;1.45;1.20;;;;;;;;;;4991854;28;20574;-49
2022/03/09 14:55:52;;;;;;;1.60;1.13;;;;;;;;;;4992094;28;20292;-49